Mc Gregor, Iowa
Current Conditions -  °F | °C
As of 9:55 PM on Saturday 24 Jan 2015 (Local Time) from KPDC Reporting Station
Clear Clear  
Wind Chill: 33°   Ceiling: Unl
Heat Index: 33°   Visibility: 10mi
Dew Point: 31°   Wind: 3mph
Humidity: 91%   Direction: 110°ESE
Pressure: 29.6"   Gusts: NA
Location:  43.0056°N, 91.2139°W
Report Text: KPDC 250355Z AUTO 11003KT 10SM CLR 01/00 A2960 RMK AO2 T00081005
Loading
Personal Weather Stations






























Interactive Weather Map New forecast layout! Learn more

10-Day Weather Forecast

Advertisements
Track Severe Weather on mobile